map of DYU home
DYU - Airport
Location
City:  Dushanbe, Dushanbe, Tajikistan
Near (Alt.):Stalinabad
Name:Dushanbe International Airport
ICAO:UTDD
IATA:DYU

Details
Type:Airport (Aerodrome, Airfield)
Use:Public/Civil, Military, International (customs port of entry)
Latitude:3833'N (38.543)
Longitude:6850'E (68.825)
Elevation:2574 ft (785 m)
Variation:4.54E (WMM2015v2 magnetic declination)
0.06 annual change
Runways:1
Longest:10210 × 148 ft (3112 × 45 m), paved

Time
Time Zone:UTC+5
Local Time:

Weather
METAR:UTDD 041400Z VRB02MPS 8000 -SHRA SCT051CB OVC058 09/05 Q1015 R09/29//50 NOSIG RMK QFE693/0924

Related Locations
Nearby:
Farthest:IPC: 11639 mi / 18732 km
Easter Island (Isla de Pascua, Rapa Nui) [Mataveri Intl], VS, CL

Find:

   beyond  
but within

Other Information
Maps:
NOTAMs:
Links:
Sources:

  
  • flag of Tajikistan
  

Sectional Chart

Flight Planning
at skyvector.com

Satellite Image

Google Maps Satellite view

Yandex Maps Satellite view


 

Copyright © 2004-2019 Karl L. Swartz. All rights reserved.
The Great Circle Mapper name and logo are trademarks of the Great Circle Mapper.
All other trademarks mentioned herein belong to their respective owners.
Please see credits for attibutions and further copyright information.

  Follow gcmap on Facebook Follow gcmap on Twitter GCmap on LinkedIn

hCard Microformat

Geo Microformat